createdAt,value
2018-05-14T00:05:44.789Z,4.10
2018-05-14T00:08:31.911Z,3.57
2018-05-14T00:11:08.831Z,3.50
2018-05-14T00:13:54.815Z,4.00
2018-05-14T00:16:37.209Z,4.63
2018-05-14T00:19:15.415Z,4.33
2018-05-14T00:21:59.993Z,3.80
2018-05-14T00:24:49.746Z,4.07
2018-05-14T00:27:36.463Z,4.30
2018-05-14T00:30:12.533Z,4.13
2018-05-14T00:32:47.769Z,4.17
2018-05-14T00:35:28.642Z,4.80
2018-05-14T00:38:02.375Z,4.33
2018-05-14T00:40:36.297Z,5.13
2018-05-14T00:43:21.444Z,4.60
2018-05-14T00:45:56.098Z,5.07
2018-05-14T00:48:28.839Z,5.07
2018-05-14T00:51:05.391Z,4.83
2018-05-14T00:56:22.915Z,5.03
2018-05-14T00:59:04.214Z,5.20
2018-05-14T01:01:49.243Z,5.27
2018-05-14T01:04:42.587Z,5.50
2018-05-14T01:07:38.601Z,5.60
2018-05-14T01:10:24.647Z,4.93
2018-05-14T01:13:16.739Z,4.70
2018-05-14T01:16:04.878Z,5.27
2018-05-14T01:18:51.110Z,5.37
2018-05-14T01:24:35.443Z,4.70
2018-05-14T01:27:19.139Z,5.37
2018-05-14T01:29:59.672Z,5.50
2018-05-14T01:32:41.240Z,5.50
2018-05-14T01:41:09.200Z,5.40
2018-05-14T01:43:52.116Z,6.10
2018-05-14T01:46:26.344Z,5.77
2018-05-14T01:49:10.712Z,5.63
2018-05-14T01:51:49.036Z,5.87
2018-05-14T01:54:30.270Z,6.03
2018-05-14T01:57:11.300Z,5.80
2018-05-14T01:59:48.684Z,5.40
2018-05-14T02:02:28.123Z,6.17
2018-05-14T02:05:06.608Z,5.63
2018-05-14T02:07:50.149Z,5.87
2018-05-14T02:10:29.652Z,5.80
2018-05-14T02:16:04.889Z,6.27
2018-05-14T02:18:50.831Z,6.33
2018-05-14T02:21:22.396Z,6.30
2018-05-14T02:24:01.603Z,6.90
2018-05-14T02:26:42.063Z,6.20
2018-05-14T02:29:18.656Z,6.30
2018-05-14T02:31:57.074Z,6.13
2018-05-14T02:34:32.162Z,7.17
2018-05-14T02:37:09.648Z,6.93
2018-05-14T02:39:53.204Z,6.57
2018-05-14T02:45:49.213Z,6.87
2018-05-14T02:51:33.821Z,7.37
2018-05-14T02:54:20.424Z,6.37
2018-05-14T02:57:09.196Z,7.33
2018-05-14T02:59:47.128Z,6.90
2018-05-14T03:02:31.729Z,6.53
2018-05-14T03:05:08.503Z,5.90
2018-05-14T03:07:47.705Z,5.93
2018-05-14T03:10:30.550Z,5.60
2018-05-14T03:13:24.077Z,5.80
2018-05-14T03:16:03.634Z,6.57
2018-05-14T03:18:35.200Z,6.60
2018-05-14T03:21:09.658Z,6.20
2018-05-14T03:23:53.413Z,6.37
2018-05-14T03:26:26.687Z,6.63
2018-05-14T03:29:03.029Z,6.73
2018-05-14T03:31:39.677Z,6.03
2018-05-14T03:34:12.979Z,6.47
2018-05-14T03:36:46.898Z,6.90
2018-05-14T03:39:26.483Z,7.07
2018-05-14T03:42:00.984Z,6.10
2018-05-14T03:44:35.122Z,6.30
2018-05-14T03:47:13.313Z,6.63
2018-05-14T03:49:56.000Z,6.30
2018-05-14T03:52:33.053Z,5.80
2018-05-14T03:55:12.788Z,6.80
2018-05-14T03:57:49.827Z,6.80
2018-05-14T04:00:34.555Z,6.50
2018-05-14T04:03:25.129Z,6.40
2018-05-14T04:06:16.695Z,6.60
2018-05-14T04:08:52.741Z,5.53
2018-05-14T04:11:30.479Z,5.93
2018-05-14T04:14:06.246Z,5.73
2018-05-14T04:16:40.776Z,5.70
2018-05-14T04:19:23.760Z,6.00
2018-05-14T04:22:02.376Z,5.30
2018-05-14T04:24:34.987Z,5.10
2018-05-14T04:27:05.345Z,4.90
2018-05-14T04:29:34.950Z,4.83
2018-05-14T04:32:17.051Z,5.20
2018-05-14T04:34:54.211Z,4.40
2018-05-14T04:37:31.178Z,4.60
2018-05-14T04:40:01.536Z,4.57
2018-05-14T04:42:30.974Z,3.97
2018-05-14T04:45:08.079Z,4.40
2018-05-14T04:47:47.142Z,4.70
2018-05-14T04:50:24.509Z,3.90
2018-05-14T04:52:55.124Z,4.20
2018-05-14T04:55:26.293Z,4.23
2018-05-14T04:57:58.684Z,3.73
2018-05-14T05:03:28.286Z,4.20
2018-05-14T05:06:11.789Z,3.87
2018-05-14T05:12:05.635Z,3.63
2018-05-14T05:14:40.815Z,3.70
2018-05-14T05:17:25.560Z,4.00
2018-05-14T05:20:27.854Z,4.03
2018-05-14T05:23:20.473Z,3.83
2018-05-14T05:26:03.550Z,3.47
2018-05-14T05:31:46.308Z,3.83
2018-05-14T05:34:30.186Z,3.83
2018-05-14T05:40:07.997Z,4.37
2018-05-14T05:42:38.990Z,4.30
2018-05-14T05:45:22.122Z,3.70
2018-05-14T05:47:59.811Z,3.77
2018-05-14T05:50:30.409Z,3.43
2018-05-14T05:53:19.694Z,3.33
2018-05-14T05:55:52.511Z,3.97
2018-05-14T05:58:32.600Z,3.33
2018-05-14T06:01:17.908Z,3.90
2018-05-14T06:03:51.318Z,3.97
2018-05-14T06:06:27.138Z,3.30
2018-05-14T06:09:15.772Z,3.77
2018-05-14T06:11:48.575Z,3.47
2018-05-14T06:17:22.174Z,3.47
2018-05-14T06:19:56.411Z,3.90
2018-05-14T06:22:36.224Z,3.70
2018-05-14T06:25:12.521Z,3.53
2018-05-14T06:27:51.160Z,3.77
2018-05-14T06:30:33.547Z,3.40
2018-05-14T06:33:04.880Z,3.83
2018-05-14T06:35:44.983Z,3.47
2018-05-14T06:38:19.808Z,3.80
2018-05-14T06:40:49.234Z,3.73
2018-05-14T06:43:20.411Z,3.87
2018-05-14T06:45:56.341Z,3.33
2018-05-14T06:48:31.200Z,3.40
2018-05-14T06:51:02.096Z,3.47
2018-05-14T06:53:35.152Z,3.60
2018-05-14T06:56:14.959Z,3.17
2018-05-14T06:58:45.099Z,3.60
2018-05-14T07:01:21.287Z,3.50
2018-05-14T07:03:55.241Z,3.43
2018-05-14T07:06:28.731Z,3.60
2018-05-14T07:09:02.482Z,3.50
2018-05-14T07:11:32.659Z,3.53
2018-05-14T07:14:03.786Z,3.93
2018-05-14T07:16:35.270Z,3.57
2018-05-14T07:19:04.816Z,3.90
2018-05-14T07:21:37.085Z,3.60
2018-05-14T07:24:10.586Z,3.83
2018-05-14T07:26:47.488Z,3.20
2018-05-14T07:29:20.729Z,3.77
2018-05-14T07:31:50.474Z,4.00
2018-05-14T07:34:19.590Z,3.67
2018-05-14T07:36:54.090Z,3.70
2018-05-14T07:39:29.177Z,3.47
2018-05-14T07:42:04.511Z,4.03
2018-05-14T07:44:38.972Z,3.83
2018-05-14T07:47:08.654Z,4.07
2018-05-14T07:49:41.046Z,3.30
2018-05-14T07:52:12.108Z,3.50
2018-05-14T07:54:51.470Z,3.53
2018-05-14T07:57:30.683Z,3.33
2018-05-14T08:00:00.068Z,31.03
2018-05-14T08:02:34.140Z,3.20
2018-05-14T08:05:07.426Z,3.37
2018-05-14T08:07:48.603Z,3.43
2018-05-14T08:10:26.078Z,3.20
2018-05-14T08:12:56.198Z,3.70
2018-05-14T08:15:29.739Z,3.83
2018-05-14T08:17:59.237Z,3.60
2018-05-14T08:20:35.293Z,3.13
2018-05-14T08:23:10.572Z,3.57
2018-05-14T08:25:40.507Z,3.40
2018-05-14T08:28:23.501Z,4.07
2018-05-14T08:30:53.596Z,3.70
2018-05-14T08:33:28.627Z,4.53
2018-05-14T08:36:06.360Z,5.37
2018-05-14T08:38:36.775Z,5.67
2018-05-14T08:41:14.075Z,5.80
2018-05-14T08:43:51.759Z,4.67
2018-05-14T08:46:29.065Z,4.20
2018-05-14T08:49:05.687Z,4.40
2018-05-14T08:51:36.090Z,6.10
2018-05-14T08:54:08.283Z,4.67
2018-05-14T08:56:49.809Z,7.17
2018-05-14T08:59:27.350Z,6.37
2018-05-14T09:02:08.414Z,5.30
2018-05-14T09:04:38.494Z,8.70
2018-05-14T09:07:12.303Z,5.90
2018-05-14T09:09:47.519Z,5.80
2018-05-14T09:12:25.167Z,7.03
2018-05-14T09:15:00.705Z,5.87
2018-05-14T09:17:31.027Z,6.50
2018-05-14T09:20:04.334Z,6.10
2018-05-14T09:22:46.814Z,6.10
2018-05-14T09:25:35.048Z,6.80
2018-05-14T09:30:53.107Z,7.23
2018-05-14T09:33:27.933Z,7.57
2018-05-14T09:36:13.221Z,6.90
2018-05-14T09:38:57.220Z,7.87
2018-05-14T09:41:53.229Z,7.63
2018-05-14T09:44:38.669Z,7.83
2018-05-14T09:47:16.851Z,7.67
2018-05-14T09:49:50.253Z,7.40
2018-05-14T09:55:30.709Z,8.43
2018-05-14T09:58:18.478Z,8.57
2018-05-14T10:00:56.589Z,9.17
2018-05-14T10:03:46.775Z,8.50
2018-05-14T10:06:31.641Z,9.40
2018-05-14T10:09:24.364Z,9.73
2018-05-14T10:12:01.011Z,10.30
2018-05-14T10:14:45.699Z,10.30
2018-05-14T10:17:22.264Z,10.47
2018-05-14T10:20:19.582Z,10.43
2018-05-14T10:23:13.023Z,10.60
2018-05-14T10:25:56.633Z,11.00
2018-05-14T10:31:24.053Z,10.73
2018-05-14T10:37:19.201Z,11.20
2018-05-14T10:39:59.449Z,11.23
2018-05-14T10:42:52.622Z,11.43
2018-05-14T10:45:48.332Z,15.83
2018-05-14T10:51:08.918Z,10.87
2018-05-14T10:53:41.897Z,10.77
2018-05-14T10:56:16.170Z,11.37
2018-05-14T10:58:51.333Z,10.73
2018-05-14T11:01:29.348Z,11.30
2018-05-14T11:04:00.780Z,10.90
2018-05-14T11:06:32.755Z,11.63
2018-05-14T11:09:02.947Z,10.90
2018-05-14T11:11:33.483Z,11.50
2018-05-14T11:14:10.180Z,10.47
2018-05-14T11:16:45.579Z,12.03
2018-05-14T11:19:19.619Z,12.60
2018-05-14T11:21:53.480Z,11.73
2018-05-14T11:24:25.684Z,10.27
2018-05-14T11:26:56.118Z,11.50
2018-05-14T11:29:31.499Z,10.17
2018-05-14T11:32:07.625Z,11.53
2018-05-14T11:34:45.571Z,10.30
2018-05-14T11:37:32.975Z,10.13
2018-05-14T11:49:09.001Z,8.30
2018-05-14T11:51:56.146Z,10.43
2018-05-14T12:00:41.944Z,9.27
2018-05-14T12:03:21.788Z,8.13
2018-05-14T12:06:06.256Z,8.80
2018-05-14T12:08:56.933Z,10.20
2018-05-14T12:11:41.435Z,8.77
2018-05-14T12:18:00.540Z,8.13
2018-05-14T12:20:40.795Z,6.83
2018-05-14T12:26:09.498Z,6.63
2018-05-14T12:32:03.408Z,6.30
2018-05-14T12:34:49.910Z,7.10
2018-05-14T12:37:31.709Z,8.03
2018-05-14T12:43:05.189Z,8.33
2018-05-14T12:45:40.994Z,18.37
2018-05-14T12:51:07.874Z,9.83
2018-05-14T12:53:55.875Z,6.67
2018-05-14T12:56:37.239Z,6.70
2018-05-14T12:59:19.610Z,6.43
2018-05-14T13:02:06.987Z,8.73
2018-05-14T13:05:06.157Z,8.47
2018-05-14T13:21:35.292Z,7.17
2018-05-14T13:24:25.210Z,6.03
2018-05-14T13:30:08.851Z,5.50
2018-05-14T13:35:29.341Z,5.60
2018-05-14T13:38:06.283Z,6.60
2018-05-14T13:40:53.378Z,5.70
2018-05-14T13:43:31.638Z,5.30
2018-05-14T13:46:08.017Z,6.23
2018-05-14T13:51:29.655Z,4.40
2018-05-14T13:54:11.803Z,4.60
2018-05-14T13:56:51.343Z,4.90
2018-05-14T13:59:36.678Z,5.03
2018-05-14T14:02:31.780Z,4.77
2018-05-14T14:05:03.617Z,4.73
2018-05-14T14:10:40.442Z,4.37
2018-05-14T14:13:17.796Z,4.70
2018-05-14T14:18:40.266Z,3.30
2018-05-14T14:26:50.120Z,3.60
2018-05-14T14:29:25.997Z,3.00
2018-05-14T14:31:56.377Z,3.30
2018-05-14T14:34:42.212Z,4.13
2018-05-14T14:37:15.656Z,3.00
2018-05-14T14:39:49.021Z,3.13
2018-05-14T14:42:18.690Z,5.00
2018-05-14T14:44:47.835Z,2.93
2018-05-14T14:47:30.135Z,2.80
2018-05-14T14:50:11.429Z,3.07
2018-05-14T14:58:44.667Z,3.80
2018-05-14T15:01:23.998Z,13.03
2018-05-14T15:04:09.794Z,3.37
2018-05-14T15:06:51.857Z,2.27
2018-05-14T15:21:09.196Z,4.23
2018-05-14T15:26:52.268Z,3.63
2018-05-14T15:29:38.147Z,3.20
2018-05-14T15:32:24.370Z,2.67
2018-05-14T15:37:45.517Z,2.73
2018-05-14T15:40:22.154Z,3.20
2018-05-14T15:46:03.426Z,2.63
2018-05-14T15:51:27.883Z,2.73
2018-05-14T15:54:10.912Z,2.93
2018-05-14T15:59:35.774Z,2.43
2018-05-14T16:05:06.908Z,2.17
2018-05-14T16:07:58.866Z,6.50
2018-05-14T16:10:49.770Z,1.80
2018-05-14T16:13:32.603Z,2.17
2018-05-14T16:16:04.697Z,1.90
2018-05-14T16:18:42.173Z,2.87
2018-05-14T16:21:17.579Z,2.80
2018-05-14T16:23:48.616Z,2.20
2018-05-14T16:26:19.308Z,3.63
2018-05-14T16:28:53.684Z,3.77
2018-05-14T16:31:28.941Z,3.40
2018-05-14T16:34:18.745Z,3.23
2018-05-14T16:36:48.288Z,3.67
2018-05-14T16:39:22.785Z,4.47
2018-05-14T16:41:56.938Z,4.33
2018-05-14T16:44:32.041Z,3.80
2018-05-14T16:47:06.708Z,3.90
2018-05-14T16:49:37.106Z,4.27
2018-05-14T16:52:11.980Z,3.60
2018-05-14T16:54:48.337Z,4.10
2018-05-14T16:57:23.011Z,4.30
2018-05-14T16:59:53.347Z,4.30
2018-05-14T17:02:44.288Z,4.20
2018-05-14T17:05:41.049Z,4.63
2018-05-14T17:08:17.401Z,4.90
2018-05-14T17:13:54.253Z,4.73
2018-05-14T17:16:48.366Z,6.33
2018-05-14T17:19:37.442Z,5.20
2018-05-14T17:31:45.012Z,4.57
2018-05-14T17:34:37.526Z,4.50
2018-05-14T17:37:28.921Z,4.20
2018-05-14T17:40:07.619Z,4.50
2018-05-14T17:42:56.674Z,4.60
2018-05-14T17:48:47.674Z,4.23
2018-05-14T17:54:14.454Z,4.80
2018-05-14T17:59:56.850Z,5.00
2018-05-14T18:05:30.913Z,4.70
2018-05-14T18:08:06.647Z,5.00
2018-05-14T18:13:32.340Z,4.50
2018-05-14T18:16:03.318Z,4.70
2018-05-14T18:21:50.167Z,4.40
2018-05-14T18:24:26.596Z,5.10
2018-05-14T18:27:14.265Z,4.90
2018-05-14T18:30:04.552Z,4.73
2018-05-14T18:32:44.662Z,4.70
2018-05-14T18:35:27.548Z,4.63
2018-05-14T18:37:58.799Z,4.50
2018-05-14T18:43:22.962Z,5.27
2018-05-14T18:45:59.127Z,4.50
2018-05-14T18:48:44.034Z,5.13
2018-05-14T18:51:21.188Z,4.67
2018-05-14T18:56:51.970Z,4.77
2018-05-14T18:59:21.772Z,4.40
2018-05-14T19:02:01.524Z,4.93
2018-05-14T19:04:45.231Z,5.13
2018-05-14T19:07:17.386Z,5.37
2018-05-14T19:09:47.110Z,4.50
2018-05-14T19:15:20.091Z,4.43
2018-05-14T19:18:05.180Z,4.70
2018-05-14T19:20:48.682Z,5.07
2018-05-14T19:24:14.023Z,4.83
2018-05-14T19:30:02.304Z,4.47
2018-05-14T19:32:44.325Z,4.70
2018-05-14T19:35:34.671Z,4.70
2018-05-14T19:38:26.035Z,5.37
2018-05-14T19:41:22.467Z,4.33
2018-05-14T19:49:31.568Z,3.93
2018-05-14T19:52:00.746Z,4.40
2018-05-14T19:54:30.344Z,4.73
2018-05-14T19:57:02.432Z,4.90
2018-05-14T19:59:32.510Z,4.10
2018-05-14T20:02:01.658Z,4.80
2018-05-14T20:04:30.771Z,4.87
2018-05-14T20:06:59.894Z,4.77
2018-05-14T20:09:29.626Z,4.10
2018-05-14T20:11:58.759Z,3.93
2018-05-14T20:14:27.868Z,3.57
2018-05-14T20:16:57.418Z,3.93
2018-05-14T20:19:26.535Z,4.10
2018-05-14T20:21:55.671Z,3.83
2018-05-14T20:24:25.014Z,4.00
2018-05-14T20:26:54.126Z,4.07
2018-05-14T20:29:23.256Z,3.73
2018-05-14T20:31:53.657Z,4.30
2018-05-14T20:34:22.920Z,3.93
2018-05-14T20:36:52.265Z,3.70
2018-05-14T20:39:22.108Z,3.87
2018-05-14T20:41:51.898Z,4.00
2018-05-14T20:44:21.404Z,3.97
2018-05-14T20:46:51.338Z,3.37
2018-05-14T20:49:21.184Z,4.00
2018-05-14T20:51:50.358Z,3.43
2018-05-14T20:54:20.233Z,3.37
2018-05-14T20:56:49.387Z,3.67
2018-05-14T20:59:19.356Z,4.07
2018-05-14T21:01:48.857Z,3.33
2018-05-14T21:04:18.047Z,3.93
2018-05-14T21:06:47.168Z,3.60
2018-05-14T21:09:16.300Z,3.90
2018-05-14T21:11:45.435Z,4.00
2018-05-14T21:14:14.570Z,3.63
2018-05-14T21:16:43.687Z,3.80
2018-05-14T21:19:12.823Z,3.33
2018-05-14T21:21:41.935Z,3.73
2018-05-14T21:24:11.086Z,3.70
2018-05-14T21:26:40.131Z,3.97
2018-05-14T21:29:09.271Z,3.50
2018-05-14T21:31:38.396Z,3.50
2018-05-14T21:34:07.588Z,3.53
2018-05-14T21:36:36.711Z,3.80
2018-05-14T21:39:06.209Z,3.70
2018-05-14T21:41:35.434Z,3.40
2018-05-14T21:44:04.549Z,3.17
2018-05-14T21:46:33.672Z,3.33
2018-05-14T21:49:02.817Z,3.20
2018-05-14T21:51:31.935Z,3.00
2018-05-14T21:54:01.059Z,3.60
2018-05-14T21:56:30.203Z,3.27
2018-05-14T21:58:59.377Z,3.30
2018-05-14T22:01:28.862Z,3.33
2018-05-14T22:03:58.448Z,3.07
2018-05-14T22:06:27.076Z,3.23
2018-05-14T22:08:56.202Z,3.30
2018-05-14T22:11:25.360Z,3.37
2018-05-14T22:13:54.547Z,3.63
2018-05-14T22:16:23.687Z,3.33
2018-05-14T22:18:52.851Z,3.90
2018-05-14T22:21:21.969Z,3.30
2018-05-14T22:23:51.093Z,3.07
2018-05-14T22:26:20.272Z,3.30
2018-05-14T22:28:49.440Z,3.60
2018-05-14T22:31:18.426Z,3.30
2018-05-14T22:33:47.577Z,3.10
2018-05-14T22:36:16.695Z,3.57
2018-05-14T22:38:45.813Z,3.30
2018-05-14T22:41:15.507Z,3.20
2018-05-14T22:43:44.630Z,3.50
2018-05-14T22:46:13.741Z,3.47
2018-05-14T22:48:42.884Z,3.47
2018-05-14T22:51:12.002Z,3.40
2018-05-14T22:53:41.117Z,3.47
2018-05-14T22:56:10.948Z,3.10
2018-05-14T22:58:40.123Z,2.87
2018-05-14T23:01:09.756Z,3.13
2018-05-14T23:03:40.004Z,3.07
2018-05-14T23:06:09.123Z,3.70
2018-05-14T23:08:38.247Z,2.90
2018-05-14T23:11:07.404Z,3.13
2018-05-14T23:13:36.493Z,3.00
2018-05-14T23:16:05.618Z,3.20
2018-05-14T23:18:34.766Z,2.90
2018-05-14T23:21:03.908Z,3.20
2018-05-14T23:23:33.026Z,3.40
2018-05-14T23:26:02.168Z,3.00
2018-05-14T23:28:31.286Z,3.03
2018-05-14T23:31:00.403Z,2.63
2018-05-14T23:33:29.573Z,3.20
2018-05-14T23:35:58.756Z,2.97
2018-05-14T23:38:27.868Z,3.17
2018-05-14T23:40:57.011Z,2.87
2018-05-14T23:43:26.131Z,3.00
2018-05-14T23:45:55.266Z,3.27
2018-05-14T23:48:24.622Z,2.90
2018-05-14T23:50:53.743Z,3.13
2018-05-14T23:53:22.871Z,2.90
2018-05-14T23:55:52.031Z,2.90
2018-05-14T23:58:21.159Z,2.97
